Time;durP1;ratioP1;P1;durP2;ratioP2;P2;SDS_P1;SDS_P2;PMS_P1;PMS_P2;Temp;Humidity;BMP_temperature;BMP_pressure;BME280_temperature;BME280_humidity;BME280_pressure;Samples;Min_cycle;Max_cycle;Signal;HPM_P1;HPM_P2
2023/04/08 00:00:35;;;;;;;1.50;1.33;;;;;;;;;;5050356;28;20119;-82
2023/04/08 00:03:01;;;;;;;2.13;1.67;;;;;;;;;;5041782;28;20381;-81
2023/04/08 00:05:27;;;;;;;2.78;1.73;;;;;;;;;;5048047;28;20461;-84
2023/04/08 00:07:52;;;;;;;1.17;1.08;;;;;;;;;;5041072;28;20037;-81
2023/04/08 00:10:18;;;;;;;3.47;2.08;;;;;;;;;;5049855;28;20029;-82
2023/04/08 00:12:44;;;;;;;8.07;3.35;;;;;;;;;;5040500;28;20121;-82
2023/04/08 00:15:10;;;;;;;4.32;2.70;;;;;;;;;;5043634;28;20049;-82
2023/04/08 00:17:35;;;;;;;6.00;2.97;;;;;;;;;;5043609;28;20084;-80
2023/04/08 00:20:01;;;;;;;3.60;2.72;;;;;;;;;;5046106;28;20029;-82
2023/04/08 00:22:27;;;;;;;2.03;1.48;;;;;;;;;;5043189;28;20031;-82
2023/04/08 00:24:52;;;;;;;2.00;1.73;;;;;;;;;;5046286;28;20451;-82
2023/04/08 00:27:18;;;;;;;1.33;1.23;;;;;;;;;;5042909;28;20032;-81
2023/04/08 00:29:43;;;;;;;2.55;1.90;;;;;;;;;;5042387;28;20064;-81
2023/04/08 00:32:09;;;;;;;3.20;2.35;;;;;;;;;;5045448;28;20492;-80
2023/04/08 00:34:34;;;;;;;1.55;1.38;;;;;;;;;;5040309;28;20022;-82
2023/04/08 00:37:00;;;;;;;3.53;2.60;;;;;;;;;;5044164;28;20037;-81
2023/04/08 00:39:25;;;;;;;2.53;1.85;;;;;;;;;;5040156;28;20027;-81
2023/04/08 00:41:51;;;;;;;2.17;1.80;;;;;;;;;;5045164;28;20032;-83
2023/04/08 00:44:16;;;;;;;2.95;2.45;;;;;;;;;;5039484;28;20045;-83
2023/04/08 00:46:42;;;;;;;5.28;2.22;;;;;;;;;;5043796;28;20049;-82
2023/04/08 00:49:07;;;;;;;4.00;2.25;;;;;;;;;;5043146;28;20025;-83
2023/04/08 00:51:35;;;;;;;3.03;1.58;;;;;;;;;;5043086;28;20035;-82
2023/04/08 00:54:03;;;;;;;2.30;1.48;;;;;;;;;;5042987;28;20415;-82
2023/04/08 00:56:29;;;;;;;2.85;1.80;;;;;;;;;;5045517;28;20044;-83
2023/04/08 00:58:54;;;;;;;4.47;1.65;;;;;;;;;;5039927;28;20032;-82
2023/04/08 01:02:09;;;;;;;1.95;1.63;;;;;;;;;;5047021;28;20036;-82
2023/04/08 01:04:37;;;;;;;3.67;1.90;;;;;;;;;;5040388;28;20029;-83
2023/04/08 01:07:06;;;;;;;2.20;1.92;;;;;;;;;;5043976;28;20139;-83
2023/04/08 01:09:34;;;;;;;2.78;2.03;;;;;;;;;;5042396;28;20371;-82
2023/04/08 01:12:04;;;;;;;3.30;2.58;;;;;;;;;;5045655;28;20500;-83
2023/04/08 01:14:33;;;;;;;5.18;3.17;;;;;;;;;;5044404;28;20384;-82
2023/04/08 01:17:00;;;;;;;4.57;2.70;;;;;;;;;;5041879;28;22052;-81
2023/04/08 01:19:30;;;;;;;2.75;2.05;;;;;;;;;;5041383;28;20034;-82
2023/04/08 01:22:11;;;;;;;;;;;;;;;;;;5047671;28;20032;-83
2023/04/08 01:24:41;;;;;;;4.20;3.28;;;;;;;;;;5034399;28;19916;-82
2023/04/08 01:27:09;;;;;;;5.82;3.58;;;;;;;;;;5043248;28;20021;-82
2023/04/08 01:29:36;;;;;;;4.47;2.63;;;;;;;;;;5036260;28;20492;-82
2023/04/08 01:32:03;;;;;;;2.80;2.28;;;;;;;;;;5041341;28;20056;-82
2023/04/08 01:34:30;;;;;;;3.47;2.50;;;;;;;;;;5056145;28;20473;-82
2023/04/08 01:36:57;;;;;;;3.95;2.08;;;;;;;;;;5043339;28;20017;-81
2023/04/08 01:39:24;;;;;;;3.55;2.65;;;;;;;;;;5046187;28;20109;-84
2023/04/08 01:41:52;;;;;;;3.42;2.67;;;;;;;;;;5045306;28;20045;-83
2023/04/08 01:44:19;;;;;;;2.67;2.20;;;;;;;;;;5038488;28;20489;-83
2023/04/08 01:46:46;;;;;;;1.83;1.58;;;;;;;;;;5046995;28;20048;-82
2023/04/08 01:49:13;;;;;;;3.22;2.08;;;;;;;;;;5040753;28;20044;-82
2023/04/08 01:51:39;;;;;;;2.88;1.85;;;;;;;;;;5046185;28;20044;-82
2023/04/08 01:54:05;;;;;;;1.52;1.42;;;;;;;;;;5053524;28;20532;-82
2023/04/08 01:56:35;;;;;;;3.85;2.00;;;;;;;;;;5040488;28;20045;-83
2023/04/08 01:59:05;;;;;;;4.15;2.22;;;;;;;;;;5046173;28;20033;-81
2023/04/08 02:01:33;;;;;;;2.58;1.92;;;;;;;;;;5053578;28;20116;-82
2023/04/08 02:03:59;;;;;;;2.70;1.90;;;;;;;;;;5050129;28;20025;-81
2023/04/08 02:06:26;;;;;;;4.50;2.40;;;;;;;;;;5049557;28;20028;-82
2023/04/08 02:08:52;;;;;;;3.97;2.45;;;;;;;;;;5049907;28;20025;-82
2023/04/08 02:11:18;;;;;;;2.63;2.17;;;;;;;;;;5043360;28;20092;-81
2023/04/08 02:13:43;;;;;;;2.08;1.63;;;;;;;;;;5042696;28;20108;-81
2023/04/08 02:16:17;;;;;;;4.53;1.88;;;;;;;;;;5043216;28;20029;-84
2023/04/08 02:18:49;;;;;;;1.98;1.17;;;;;;;;;;5042101;28;20115;-84
2023/04/08 02:21:15;;;;;;;3.90;2.17;;;;;;;;;;5045207;28;20388;-84
2023/04/08 02:23:44;;;;;;;3.03;2.28;;;;;;;;;;5040011;28;20116;-84
2023/04/08 02:26:15;;;;;;;3.95;2.50;;;;;;;;;;5040207;28;20021;-81
2023/04/08 02:28:41;;;;;;;2.80;2.25;;;;;;;;;;5049028;28;20071;-82
2023/04/08 02:31:14;;;;;;;4.10;3.22;;;;;;;;;;5047518;28;20025;-82
2023/04/08 02:33:41;;;;;;;8.38;3.92;;;;;;;;;;5049081;28;20499;-82
2023/04/08 02:36:07;;;;;;;4.38;3.65;;;;;;;;;;5045952;28;20370;-83
2023/04/08 02:38:33;;;;;;;5.50;3.83;;;;;;;;;;5038365;28;20057;-82
2023/04/08 02:40:58;;;;;;;8.07;4.57;;;;;;;;;;5042710;28;20512;-83
2023/04/08 02:43:42;;;;;;;5.25;3.35;;;;;;;;;;5046370;28;20040;-83
2023/04/08 02:46:10;;;;;;;7.28;4.25;;;;;;;;;;5046844;28;20037;-83
2023/04/08 02:48:35;;;;;;;6.05;4.22;;;;;;;;;;5042616;28;20027;-82
2023/04/08 02:51:01;;;;;;;5.88;3.97;;;;;;;;;;5041788;28;20104;-82
2023/04/08 02:53:26;;;;;;;8.95;6.20;;;;;;;;;;5045654;28;20472;-82
2023/04/08 02:55:52;;;;;;;7.60;4.47;;;;;;;;;;5051127;28;20033;-82
2023/04/08 02:58:17;;;;;;;15.90;4.53;;;;;;;;;;5040903;28;20465;-84
2023/04/08 03:00:42;;;;;;;4.95;3.95;;;;;;;;;;5045539;28;20021;-81
2023/04/08 03:03:08;;;;;;;6.50;3.47;;;;;;;;;;5047445;28;20030;-84
2023/04/08 03:05:34;;;;;;;4.50;2.53;;;;;;;;;;5044321;28;20038;-83
2023/04/08 03:07:59;;;;;;;3.85;2.58;;;;;;;;;;5046825;28;20021;-83
2023/04/08 03:10:25;;;;;;;5.95;2.55;;;;;;;;;;5055194;28;20104;-82
2023/04/08 03:12:50;;;;;;;6.03;3.65;;;;;;;;;;5046746;28;20033;-82
2023/04/08 03:15:16;;;;;;;4.63;3.50;;;;;;;;;;5046316;28;20475;-82
2023/04/08 03:17:41;;;;;;;7.57;3.88;;;;;;;;;;5047665;28;20025;-82
2023/04/08 03:20:07;;;;;;;5.47;2.92;;;;;;;;;;5048230;28;20373;-83
2023/04/08 03:22:35;;;;;;;2.80;2.17;;;;;;;;;;5048925;28;20029;-82
2023/04/08 03:25:00;;;;;;;2.60;1.80;;;;;;;;;;5045100;28;20036;-83
2023/04/08 03:27:26;;;;;;;3.30;1.90;;;;;;;;;;5045489;28;20425;-83
2023/04/08 03:29:52;;;;;;;3.45;2.00;;;;;;;;;;5044617;28;20489;-82
2023/04/08 03:32:17;;;;;;;4.90;2.60;;;;;;;;;;5045825;28;20107;-83
2023/04/08 03:34:44;;;;;;;2.38;2.17;;;;;;;;;;5047326;28;20052;-84
2023/04/08 03:37:10;;;;;;;5.10;2.67;;;;;;;;;;5038955;28;20071;-82
2023/04/08 03:39:35;;;;;;;4.30;3.05;;;;;;;;;;5042457;28;20037;-83
2023/04/08 03:42:02;;;;;;;2.60;2.22;;;;;;;;;;5041518;28;20116;-82
2023/04/08 03:44:27;;;;;;;3.78;2.83;;;;;;;;;;5042957;28;20049;-85
2023/04/08 03:46:53;;;;;;;3.28;2.17;;;;;;;;;;5045843;28;20032;-84
2023/04/08 03:49:24;;;;;;;3.35;2.13;;;;;;;;;;5047150;28;20029;-84
2023/04/08 03:51:50;;;;;;;3.40;2.40;;;;;;;;;;5047315;28;20040;-85
2023/04/08 03:54:15;;;;;;;4.80;2.83;;;;;;;;;;5038305;28;20033;-84
2023/04/08 03:56:41;;;;;;;5.10;3.15;;;;;;;;;;5038565;28;20020;-85
2023/04/08 03:59:06;;;;;;;3.25;2.38;;;;;;;;;;5039027;28;20055;-82
2023/04/08 04:01:31;;;;;;;4.20;3.05;;;;;;;;;;5037638;28;20120;-83
2023/04/08 04:03:57;;;;;;;2.80;2.47;;;;;;;;;;5049675;28;20033;-81
2023/04/08 04:06:23;;;;;;;2.58;1.92;;;;;;;;;;5041262;28;20369;-85
2023/04/08 04:08:49;;;;;;;3.50;2.70;;;;;;;;;;5040405;28;20025;-83
2023/04/08 04:11:15;;;;;;;9.75;2.80;;;;;;;;;;5039448;28;20029;-83
2023/04/08 04:13:40;;;;;;;4.13;2.83;;;;;;;;;;5049755;28;20381;-83
2023/04/08 04:16:06;;;;;;;3.70;2.58;;;;;;;;;;5042161;28;20090;-82
2023/04/08 04:18:31;;;;;;;4.40;2.65;;;;;;;;;;5041323;28;20028;-84
2023/04/08 04:20:56;;;;;;;3.22;2.83;;;;;;;;;;5036309;28;20112;-81
2023/04/08 04:23:23;;;;;;;4.38;2.38;;;;;;;;;;5038530;28;20035;-83
2023/04/08 04:25:49;;;;;;;3.90;2.72;;;;;;;;;;5032782;28;20381;-83
2023/04/08 04:28:14;;;;;;;2.88;2.00;;;;;;;;;;5039505;28;20021;-82
2023/04/08 04:30:40;;;;;;;5.03;3.85;;;;;;;;;;5035138;28;20049;-81
2023/04/08 04:33:06;;;;;;;7.88;4.40;;;;;;;;;;5045955;28;20031;-80
2023/04/08 04:35:32;;;;;;;6.03;3.47;;;;;;;;;;5037533;28;20017;-82
2023/04/08 04:37:57;;;;;;;7.47;4.32;;;;;;;;;;5041799;28;20029;-83
2023/04/08 04:40:23;;;;;;;5.00;2.90;;;;;;;;;;5041139;28;20017;-81
2023/04/08 04:42:48;;;;;;;7.57;3.83;;;;;;;;;;5037457;28;20477;-81
2023/04/08 04:45:14;;;;;;;13.45;7.07;;;;;;;;;;5038717;28;20022;-81
2023/04/08 04:47:40;;;;;;;6.90;4.57;;;;;;;;;;5038906;28;20072;-82
2023/04/08 04:50:06;;;;;;;7.85;5.85;;;;;;;;;;5036298;28;20472;-81
2023/04/08 04:52:32;;;;;;;10.73;6.88;;;;;;;;;;5035404;28;20033;-82
2023/04/08 04:54:57;;;;;;;7.97;6.15;;;;;;;;;;5043640;28;20032;-82
2023/04/08 04:57:23;;;;;;;14.48;7.93;;;;;;;;;;5038366;28;20025;-82
2023/04/08 04:59:49;;;;;;;12.50;6.28;;;;;;;;;;5046121;28;20024;-82
2023/04/08 05:02:14;;;;;;;15.80;6.93;;;;;;;;;;5039642;28;20027;-84
2023/04/08 05:04:40;;;;;;;10.02;6.75;;;;;;;;;;5038686;28;20491;-82
2023/04/08 05:07:05;;;;;;;17.45;7.40;;;;;;;;;;5036952;28;20472;-84
2023/04/08 05:09:31;;;;;;;11.75;7.07;;;;;;;;;;5041642;28;20465;-84
2023/04/08 05:11:56;;;;;;;9.70;6.65;;;;;;;;;;5042438;28;20052;-84
2023/04/08 05:14:21;;;;;;;10.05;6.60;;;;;;;;;;5043041;28;20017;-83
2023/04/08 05:16:47;;;;;;;6.97;5.53;;;;;;;;;;5036439;28;20040;-82
2023/04/08 05:19:12;;;;;;;9.50;5.72;;;;;;;;;;5034912;28;20029;-83
2023/04/08 05:21:38;;;;;;;10.00;4.95;;;;;;;;;;5034752;28;20021;-83
2023/04/08 05:24:03;;;;;;;6.65;4.15;;;;;;;;;;5037175;28;20030;-84
2023/04/08 05:26:29;;;;;;;6.38;4.10;;;;;;;;;;5040041;28;20032;-82
2023/04/08 05:28:55;;;;;;;8.23;4.85;;;;;;;;;;5042471;28;20474;-83
2023/04/08 05:31:20;;;;;;;7.97;5.22;;;;;;;;;;5041883;28;20026;-84
2023/04/08 05:33:46;;;;;;;9.40;6.03;;;;;;;;;;5044194;28;20530;-84
2023/04/08 05:36:12;;;;;;;5.95;4.60;;;;;;;;;;5036670;28;20025;-86
2023/04/08 05:38:39;;;;;;;7.85;4.70;;;;;;;;;;5037573;28;20116;-83
2023/04/08 05:41:05;;;;;;;15.15;5.43;;;;;;;;;;5038832;28;20036;-86
2023/04/08 05:43:34;;;;;;;6.20;3.28;;;;;;;;;;5043746;28;20053;-84
2023/04/08 05:45:59;;;;;;;11.07;5.82;;;;;;;;;;5043488;28;20029;-86
2023/04/08 05:48:25;;;;;;;12.85;5.95;;;;;;;;;;5038226;28;20035;-84
2023/04/08 05:50:50;;;;;;;11.77;6.97;;;;;;;;;;5034808;28;20086;-84
2023/04/08 05:53:16;;;;;;;8.52;5.38;;;;;;;;;;5039378;28;20079;-81
2023/04/08 05:55:41;;;;;;;11.40;6.40;;;;;;;;;;5041390;28;20037;-83
2023/04/08 05:58:07;;;;;;;12.20;6.85;;;;;;;;;;5038518;28;20036;-82
2023/04/08 06:00:32;;;;;;;12.98;6.75;;;;;;;;;;5042130;28;20028;-82
2023/04/08 06:02:58;;;;;;;8.90;4.93;;;;;;;;;;5045236;28;20108;-83
2023/04/08 06:05:25;;;;;;;8.05;4.53;;;;;;;;;;5039858;28;20056;-83
2023/04/08 06:07:50;;;;;;;7.70;5.00;;;;;;;;;;5044646;28;20481;-83
2023/04/08 06:10:15;;;;;;;6.50;4.78;;;;;;;;;;5043060;28;20056;-84
2023/04/08 06:12:41;;;;;;;8.40;5.20;;;;;;;;;;5042357;28;20025;-82
2023/04/08 06:15:07;;;;;;;6.20;4.15;;;;;;;;;;5038247;28;20032;-83
2023/04/08 06:17:36;;;;;;;7.95;5.88;;;;;;;;;;5039638;28;20017;-84
2023/04/08 06:20:02;;;;;;;6.57;4.57;;;;;;;;;;5037559;28;20033;-84
2023/04/08 06:22:28;;;;;;;8.05;5.35;;;;;;;;;;5041216;28;20080;-81
2023/04/08 06:24:53;;;;;;;8.50;4.05;;;;;;;;;;5039175;28;20025;-83
2023/04/08 06:27:19;;;;;;;6.18;4.47;;;;;;;;;;5040702;28;20032;-84
2023/04/08 06:29:46;;;;;;;12.35;5.43;;;;;;;;;;5035910;28;20029;-81
2023/04/08 06:32:12;;;;;;;5.15;3.58;;;;;;;;;;5035266;28;20025;-82
2023/04/08 06:34:37;;;;;;;10.35;5.70;;;;;;;;;;5039305;28;20040;-82
2023/04/08 06:37:03;;;;;;;7.82;4.30;;;;;;;;;;5039365;28;20033;-82
2023/04/08 06:39:28;;;;;;;6.15;3.75;;;;;;;;;;5034032;28;20025;-82
2023/04/08 06:41:53;;;;;;;8.20;5.35;;;;;;;;;;5042090;28;20029;-82
2023/04/08 06:44:19;;;;;;;4.93;3.80;;;;;;;;;;5043997;28;20396;-83
2023/04/08 06:46:45;;;;;;;6.32;4.47;;;;;;;;;;5038747;28;20025;-84
2023/04/08 06:49:11;;;;;;;4.60;3.20;;;;;;;;;;5039207;28;20025;-83
2023/04/08 06:51:37;;;;;;;5.28;3.75;;;;;;;;;;5039883;28;20096;-83
2023/04/08 06:54:02;;;;;;;6.53;4.80;;;;;;;;;;5037558;28;20076;-84
2023/04/08 06:56:28;;;;;;;5.55;3.67;;;;;;;;;;5037419;28;20025;-83
2023/04/08 06:58:53;;;;;;;9.00;5.03;;;;;;;;;;5040618;28;20033;-84
2023/04/08 07:01:19;;;;;;;5.57;3.90;;;;;;;;;;5045089;28;20032;-85
2023/04/08 07:03:44;;;;;;;9.88;5.20;;;;;;;;;;5041426;28;20065;-85
2023/04/08 07:06:10;;;;;;;5.97;3.60;;;;;;;;;;5040538;28;20469;-82
2023/04/08 07:08:36;;;;;;;9.63;4.93;;;;;;;;;;5036596;28;20037;-83
2023/04/08 07:11:01;;;;;;;8.57;4.82;;;;;;;;;;5045930;28;20029;-82
2023/04/08 07:13:28;;;;;;;7.30;4.53;;;;;;;;;;5041214;28;20403;-84
2023/04/08 07:15:53;;;;;;;6.50;3.88;;;;;;;;;;5040908;28;20053;-85
2023/04/08 07:18:20;;;;;;;14.20;8.15;;;;;;;;;;5038903;28;20098;-82
2023/04/08 07:20:51;;;;;;;8.40;5.63;;;;;;;;;;5037350;28;20027;-80
2023/04/08 07:23:17;;;;;;;12.15;6.88;;;;;;;;;;5033255;28;20044;-81
2023/04/08 07:25:42;;;;;;;10.55;4.88;;;;;;;;;;5031306;28;20048;-81
2023/04/08 07:28:08;;;;;;;6.80;4.45;;;;;;;;;;5024623;28;20032;-81
2023/04/08 07:30:33;;;;;;;7.68;5.38;;;;;;;;;;5043627;28;20029;-82
2023/04/08 07:32:58;;;;;;;13.57;4.72;;;;;;;;;;5041215;28;20048;-82
2023/04/08 07:35:24;;;;;;;5.47;3.40;;;;;;;;;;5031741;28;20108;-81
2023/04/08 07:37:51;;;;;;;9.07;4.57;;;;;;;;;;5037786;28;20043;-81
2023/04/08 07:40:17;;;;;;;8.07;4.47;;;;;;;;;;5037756;28;20080;-81
2023/04/08 07:42:42;;;;;;;5.03;3.53;;;;;;;;;;5043941;28;20516;-83
2023/04/08 07:45:09;;;;;;;6.95;4.03;;;;;;;;;;5036143;28;20064;-82
2023/04/08 07:47:34;;;;;;;7.15;4.82;;;;;;;;;;5043478;28;20033;-83
2023/04/08 07:50:00;;;;;;;4.90;3.92;;;;;;;;;;5047782;28;20039;-82
2023/04/08 07:52:26;;;;;;;8.73;4.15;;;;;;;;;;5046588;28;20024;-82
2023/04/08 07:54:51;;;;;;;5.90;4.28;;;;;;;;;;5035073;28;20402;-82
2023/04/08 07:57:16;;;;;;;5.30;3.60;;;;;;;;;;5040900;28;20049;-81
2023/04/08 07:59:42;;;;;;;5.30;2.85;;;;;;;;;;5044204;28;20021;-82
2023/04/08 08:02:07;;;;;;;7.68;5.03;;;;;;;;;;5039429;28;20515;-82
2023/04/08 08:04:33;;;;;;;5.18;3.47;;;;;;;;;;5041323;28;20397;-83
2023/04/08 08:06:58;;;;;;;6.82;4.57;;;;;;;;;;5040454;28;20116;-82
2023/04/08 08:09:24;;;;;;;7.43;4.78;;;;;;;;;;5040557;28;20040;-81
2023/04/08 08:11:49;;;;;;;6.03;4.22;;;;;;;;;;5042729;28;20096;-83
2023/04/08 08:14:15;;;;;;;4.90;3.65;;;;;;;;;;5032774;28;20021;-82
2023/04/08 08:16:40;;;;;;;5.38;3.45;;;;;;;;;;5043783;28;20532;-82
2023/04/08 08:19:07;;;;;;;5.50;3.42;;;;;;;;;;5034403;28;20111;-81
2023/04/08 08:21:35;;;;;;;11.65;5.65;;;;;;;;;;5042609;28;20034;-83
2023/04/08 08:24:01;;;;;;;5.90;3.92;;;;;;;;;;5045143;28;20033;-82
2023/04/08 08:26:27;;;;;;;6.97;3.75;;;;;;;;;;5038404;28;20290;-81
2023/04/08 08:28:53;;;;;;;5.35;3.53;;;;;;;;;;5034375;28;20034;-83
2023/04/08 08:31:18;;;;;;;6.13;4.47;;;;;;;;;;5036590;28;20033;-84
2023/04/08 08:33:44;;;;;;;8.32;4.95;;;;;;;;;;5042469;28;20039;-86
2023/04/08 08:36:10;;;;;;;6.40;3.92;;;;;;;;;;5041197;28;20017;-84
2023/04/08 08:38:35;;;;;;;6.85;3.88;;;;;;;;;;5038503;28;20025;-84
2023/04/08 08:41:02;;;;;;;7.82;4.00;;;;;;;;;;5043729;28;20068;-85
2023/04/08 08:43:28;;;;;;;7.90;4.10;;;;;;;;;;5040320;28;20044;-85
2023/04/08 08:45:54;;;;;;;5.90;4.15;;;;;;;;;;5035124;28;20088;-84
2023/04/08 08:48:20;;;;;;;9.57;4.32;;;;;;;;;;5044706;28;20116;-85
2023/04/08 08:50:45;;;;;;;5.68;3.47;;;;;;;;;;5037982;28;20028;-82
2023/04/08 08:53:11;;;;;;;6.43;4.25;;;;;;;;;;5040502;28;20041;-82
2023/04/08 08:55:38;;;;;;;5.47;3.47;;;;;;;;;;5035205;28;20064;-83
2023/04/08 08:58:04;;;;;;;9.52;4.20;;;;;;;;;;5039485;28;20105;-81
2023/04/08 09:00:31;;;;;;;6.38;4.10;;;;;;;;;;5041925;28;20032;-81
2023/04/08 09:03:20;;;;;;;6.65;3.80;;;;;;;;;;5035484;28;20029;-81
2023/04/08 09:06:00;;;;;;;8.98;4.97;;;;;;;;;;5035767;28;20025;-82
2023/04/08 09:08:33;;;;;;;6.05;4.47;;;;;;;;;;5032095;28;20044;-81
2023/04/08 09:11:16;;;;;;;8.00;4.35;;;;;;;;;;5037836;28;20044;-81
2023/04/08 09:13:42;;;;;;;8.13;4.80;;;;;;;;;;5033547;28;20425;-81
2023/04/08 09:16:18;;;;;;;6.10;4.47;;;;;;;;;;5039078;28;20044;-80
2023/04/08 09:18:46;;;;;;;7.22;3.60;;;;;;;;;;5035532;28;20805;-81
2023/04/08 09:21:12;;;;;;;5.55;3.20;;;;;;;;;;5034868;28;20026;-80
2023/04/08 09:23:45;;;;;;;11.30;4.35;;;;;;;;;;5041498;28;20037;-81
2023/04/08 09:26:10;;;;;;;6.57;3.50;;;;;;;;;;5032843;28;20017;-84
2023/04/08 09:28:37;;;;;;;4.97;3.58;;;;;;;;;;5043309;28;20017;-83
2023/04/08 09:31:22;;;;;;;5.88;3.13;;;;;;;;;;5036436;28;20029;-84
2023/04/08 09:33:53;;;;;;;4.85;3.00;;;;;;;;;;5035093;28;20385;-84
2023/04/08 09:36:19;;;;;;;5.00;3.20;;;;;;;;;;5035047;28;20033;-82
2023/04/08 09:38:45;;;;;;;4.38;2.80;;;;;;;;;;5038240;28;20024;-82
2023/04/08 09:41:15;;;;;;;7.05;3.80;;;;;;;;;;5032549;28;20029;-80
2023/04/08 09:43:47;;;;;;;5.32;3.13;;;;;;;;;;5041704;28;20044;-81
2023/04/08 09:46:15;;;;;;;8.02;3.50;;;;;;;;;;5039353;28;20033;-79
2023/04/08 09:48:48;;;;;;;5.28;4.07;;;;;;;;;;5046289;28;20438;-81
2023/04/08 09:51:15;;;;;;;6.47;3.83;;;;;;;;;;5046296;28;20040;-81
2023/04/08 09:53:48;;;;;;;5.68;3.30;;;;;;;;;;5037937;28;20040;-79
2023/04/08 09:56:16;;;;;;;5.50;3.63;;;;;;;;;;5036919;28;20516;-83
2023/04/08 09:58:58;;;;;;;5.30;4.47;;;;;;;;;;5037592;28;20112;-80
2023/04/08 10:01:36;;;;;;;5.50;3.40;;;;;;;;;;5036398;28;20100;-85
2023/04/08 10:04:05;;;;;;;9.27;5.15;;;;;;;;;;5035657;28;20026;-83
2023/04/08 10:06:32;;;;;;;6.22;3.85;;;;;;;;;;5038560;28;20033;-81
2023/04/08 10:08:59;;;;;;;6.13;4.30;;;;;;;;;;5045723;28;20396;-82
2023/04/08 10:11:25;;;;;;;5.60;4.03;;;;;;;;;;5040754;28;20039;-82
2023/04/08 10:13:51;;;;;;;7.30;4.07;;;;;;;;;;5042393;28;20468;-83
2023/04/08 10:16:25;;;;;;;9.27;4.05;;;;;;;;;;5039649;28;20468;-81
2023/04/08 10:18:54;;;;;;;9.10;4.80;;;;;;;;;;5039998;28;20477;-83
2023/04/08 10:21:33;;;;;;;7.25;4.10;;;;;;;;;;5039995;28;20484;-85
2023/04/08 10:24:04;;;;;;;6.35;3.80;;;;;;;;;;5037571;28;20030;-84
2023/04/08 10:26:41;;;;;;;5.80;4.18;;;;;;;;;;5037343;28;20045;-83
2023/04/08 10:29:20;;;;;;;12.30;5.68;;;;;;;;;;5052221;28;20075;-83
2023/04/08 10:31:52;;;;;;;6.35;4.40;;;;;;;;;;5041687;28;20032;-82
2023/04/08 10:34:23;;;;;;;6.05;4.00;;;;;;;;;;5045994;28;20430;-83
2023/04/08 10:36:49;;;;;;;8.70;4.55;;;;;;;;;;5038587;28;20105;-82
2023/04/08 10:39:15;;;;;;;10.75;5.85;;;;;;;;;;5049187;28;20438;-84
2023/04/08 10:41:45;;;;;;;10.30;5.43;;;;;;;;;;5050114;28;20029;-83
2023/04/08 10:44:15;;;;;;;8.77;5.47;;;;;;;;;;5037881;28;20052;-83
2023/04/08 10:46:41;;;;;;;9.50;5.50;;;;;;;;;;5040009;28;20068;-82
2023/04/08 10:49:07;;;;;;;8.30;4.60;;;;;;;;;;5044926;28;20112;-82
2023/04/08 10:51:34;;;;;;;8.32;4.45;;;;;;;;;;5048396;28;20388;-83
2023/04/08 10:54:11;;;;;;;7.05;4.00;;;;;;;;;;5035177;28;20362;-85
2023/04/08 10:56:44;;;;;;;5.22;3.70;;;;;;;;;;5042048;28;20129;-85
2023/04/08 10:59:09;;;;;;;10.43;4.47;;;;;;;;;;5042210;28;20112;-84
2023/04/08 11:01:40;;;;;;;9.15;4.25;;;;;;;;;;5038859;28;20108;-84
2023/04/08 11:04:18;;;;;;;7.90;4.43;;;;;;;;;;5043677;28;20024;-85
2023/04/08 11:06:45;;;;;;;7.43;4.00;;;;;;;;;;5040287;28;20536;-85
2023/04/08 11:09:10;;;;;;;8.60;5.28;;;;;;;;;;5035445;28;20032;-87
2023/04/08 11:11:36;;;;;;;6.45;3.83;;;;;;;;;;5040514;28;20029;-85
2023/04/08 11:14:03;;;;;;;7.18;3.95;;;;;;;;;;5046780;28;20029;-86
2023/04/08 11:16:28;;;;;;;7.80;3.33;;;;;;;;;;5044391;28;20097;-83
2023/04/08 11:18:55;;;;;;;4.82;3.45;;;;;;;;;;5041566;28;20112;-84
2023/04/08 11:21:28;;;;;;;6.57;4.40;;;;;;;;;;5042948;28;20021;-82
2023/04/08 11:23:55;;;;;;;7.78;4.28;;;;;;;;;;5047307;28;20394;-83
2023/04/08 11:26:21;;;;;;;7.60;4.88;;;;;;;;;;5041883;28;20025;-84
2023/04/08 11:28:50;;;;;;;7.00;3.90;;;;;;;;;;5037696;28;20462;-83
2023/04/08 11:31:17;;;;;;;5.32;3.40;;;;;;;;;;5036091;28;20489;-84
2023/04/08 11:33:50;;;;;;;6.70;4.03;;;;;;;;;;5034788;28;20029;-83
2023/04/08 11:36:16;;;;;;;6.20;4.10;;;;;;;;;;5034046;28;20488;-85
2023/04/08 11:38:42;;;;;;;5.45;3.33;;;;;;;;;;5034205;28;20022;-84
2023/04/08 11:41:08;;;;;;;4.68;2.78;;;;;;;;;;5035111;28;20393;-85
2023/04/08 11:43:35;;;;;;;3.95;2.28;;;;;;;;;;5045866;28;20060;-82
2023/04/08 11:46:09;;;;;;;4.13;2.53;;;;;;;;;;5035362;28;20034;-83
2023/04/08 11:48:35;;;;;;;4.75;2.63;;;;;;;;;;5028954;28;20034;-82
2023/04/08 11:51:08;;;;;;;5.57;2.90;;;;;;;;;;5043207;28;20102;-85
2023/04/08 11:53:37;;;;;;;4.85;3.13;;;;;;;;;;5036160;28;20029;-84
2023/04/08 11:56:20;;;;;;;7.45;3.33;;;;;;;;;;5037729;28;20029;-83
2023/04/08 11:58:46;;;;;;;4.95;3.35;;;;;;;;;;5035366;28;20076;-84
2023/04/08 12:01:12;;;;;;;5.38;3.55;;;;;;;;;;5035698;28;20030;-84
2023/04/08 12:03:37;;;;;;;5.85;3.28;;;;;;;;;;5043254;28;20028;-82
2023/04/08 12:06:04;;;;;;;4.93;2.90;;;;;;;;;;5044228;28;20029;-83
2023/04/08 12:08:30;;;;;;;5.25;2.95;;;;;;;;;;5038070;28;20057;-84
2023/04/08 12:10:56;;;;;;;3.45;2.70;;;;;;;;;;5047531;28;20114;-86
2023/04/08 12:13:21;;;;;;;4.50;2.78;;;;;;;;;;5039205;28;20040;-83
2023/04/08 12:15:46;;;;;;;4.97;3.17;;;;;;;;;;5036369;28;20029;-85
2023/04/08 12:18:12;;;;;;;4.47;2.67;;;;;;;;;;5039194;28;20104;-85
2023/04/08 12:20:37;;;;;;;5.10;3.08;;;;;;;;;;5039142;28;20029;-84
2023/04/08 12:23:03;;;;;;;4.13;2.53;;;;;;;;;;5041209;28;20366;-84
2023/04/08 12:25:30;;;;;;;6.07;3.28;;;;;;;;;;5035547;28;20024;-84
2023/04/08 12:27:55;;;;;;;5.88;2.65;;;;;;;;;;5034456;28;20022;-85
2023/04/08 12:30:21;;;;;;;4.57;2.47;;;;;;;;;;5041880;28;20025;-84
2023/04/08 12:32:46;;;;;;;5.03;3.33;;;;;;;;;;5040055;28;20033;-85
2023/04/08 12:35:12;;;;;;;4.00;2.85;;;;;;;;;;5031820;28;20033;-84
2023/04/08 12:37:38;;;;;;;8.55;2.78;;;;;;;;;;5039409;28;20063;-84
2023/04/08 12:40:03;;;;;;;4.22;2.17;;;;;;;;;;5037583;28;20393;-83
2023/04/08 12:42:30;;;;;;;4.18;3.03;;;;;;;;;;5039738;28;20022;-83
2023/04/08 12:44:56;;;;;;;3.28;2.25;;;;;;;;;;5044476;28;20053;-83
2023/04/08 12:47:22;;;;;;;3.65;2.25;;;;;;;;;;5056952;28;20075;-84
2023/04/08 12:49:48;;;;;;;6.82;2.40;;;;;;;;;;5039143;28;20033;-85
2023/04/08 12:52:13;;;;;;;4.15;2.42;;;;;;;;;;5037241;28;20033;-84
2023/04/08 12:54:39;;;;;;;3.70;2.55;;;;;;;;;;5040406;28;20039;-84
2023/04/08 12:57:05;;;;;;;4.60;2.75;;;;;;;;;;5042756;28;20076;-84
2023/04/08 12:59:32;;;;;;;3.97;2.58;;;;;;;;;;5034044;28;20060;-84
2023/04/08 13:01:57;;;;;;;5.30;2.47;;;;;;;;;;5035780;28;20028;-83
2023/04/08 13:04:25;;;;;;;4.68;2.80;;;;;;;;;;5038238;28;20469;-83
2023/04/08 13:06:51;;;;;;;6.18;2.83;;;;;;;;;;5035767;28;20525;-84
2023/04/08 13:09:17;;;;;;;4.15;2.47;;;;;;;;;;5042891;28;20108;-83
2023/04/08 13:11:42;;;;;;;3.40;2.65;;;;;;;;;;5033686;28;20056;-84
2023/04/08 13:14:08;;;;;;;4.05;2.58;;;;;;;;;;5040880;28;20044;-85
2023/04/08 13:16:33;;;;;;;8.85;2.88;;;;;;;;;;5045221;28;20055;-83
2023/04/08 13:18:58;;;;;;;4.57;2.80;;;;;;;;;;5032800;28;20025;-83
2023/04/08 13:21:24;;;;;;;8.45;3.70;;;;;;;;;;5034306;28;20036;-83
2023/04/08 13:23:50;;;;;;;4.50;3.45;;;;;;;;;;5036978;28;20397;-83
2023/04/08 13:26:15;;;;;;;4.18;2.72;;;;;;;;;;5045693;28;20035;-83
2023/04/08 13:28:41;;;;;;;5.30;2.92;;;;;;;;;;5040800;28;20021;-84
2023/04/08 13:31:06;;;;;;;4.90;2.58;;;;;;;;;;5042529;28;20452;-83
2023/04/08 13:33:32;;;;;;;4.47;3.15;;;;;;;;;;5042156;28;20102;-84
2023/04/08 13:35:57;;;;;;;4.05;3.05;;;;;;;;;;5040281;28;20109;-84
2023/04/08 13:38:23;;;;;;;2.60;1.88;;;;;;;;;;5034727;28;20059;-83
2023/04/08 13:40:49;;;;;;;4.43;2.40;;;;;;;;;;5042951;28;20031;-85
2023/04/08 13:43:14;;;;;;;5.53;3.33;;;;;;;;;;5044891;28;20485;-83
2023/04/08 13:45:40;;;;;;;5.28;3.45;;;;;;;;;;5038874;28;20029;-83
2023/04/08 13:48:06;;;;;;;2.78;2.30;;;;;;;;;;5049443;28;20029;-83
2023/04/08 13:50:31;;;;;;;4.63;2.90;;;;;;;;;;5042492;28;20392;-83
2023/04/08 13:52:57;;;;;;;5.10;2.67;;;;;;;;;;5042972;28;20094;-83
2023/04/08 13:55:22;;;;;;;3.80;2.53;;;;;;;;;;5045059;28;20087;-85
2023/04/08 13:57:48;;;;;;;4.45;2.97;;;;;;;;;;5041206;28;20053;-84
2023/04/08 14:00:13;;;;;;;4.18;2.70;;;;;;;;;;5050327;28;20033;-84
2023/04/08 14:02:39;;;;;;;4.03;2.83;;;;;;;;;;5045808;28;20029;-83
2023/04/08 14:05:05;;;;;;;3.35;2.33;;;;;;;;;;5043707;28;20029;-83
2023/04/08 14:07:30;;;;;;;3.92;3.28;;;;;;;;;;5046507;28;20030;-85
2023/04/08 14:09:56;;;;;;;7.57;3.75;;;;;;;;;;5046665;28;20016;-84
2023/04/08 14:12:21;;;;;;;5.10;3.53;;;;;;;;;;5048509;28;20607;-83
2023/04/08 14:14:46;;;;;;;4.82;3.30;;;;;;;;;;5051175;28;20051;-83
2023/04/08 14:17:12;;;;;;;7.00;3.95;;;;;;;;;;5046947;28;20429;-83
2023/04/08 14:19:37;;;;;;;5.13;3.38;;;;;;;;;;5036126;28;20025;-84
2023/04/08 14:22:03;;;;;;;5.30;3.08;;;;;;;;;;5043545;28;20070;-85
2023/04/08 14:24:28;;;;;;;5.32;3.30;;;;;;;;;;5043909;28;20409;-84
2023/04/08 14:26:54;;;;;;;4.93;3.03;;;;;;;;;;5043805;28;20017;-84
2023/04/08 14:29:19;;;;;;;5.10;3.28;;;;;;;;;;5038809;28;20033;-85
2023/04/08 14:31:45;;;;;;;6.95;3.67;;;;;;;;;;5040526;28;20078;-85
2023/04/08 14:34:10;;;;;;;4.82;2.90;;;;;;;;;;5046647;28;20034;-83
2023/04/08 14:36:36;;;;;;;4.30;3.13;;;;;;;;;;5045901;28;20092;-85
2023/04/08 14:39:02;;;;;;;3.72;2.60;;;;;;;;;;5037619;28;20086;-84
2023/04/08 14:41:27;;;;;;;2.47;2.28;;;;;;;;;;5035549;28;20051;-83